METAR Data
IDs: Format: Raw Decoded Include TAF

Data at: 0233 UTC 20 Jan 2022

EPLL 200230Z 22012KT 180V250 4600 -SN BR SCT005 BKN007 00/M01 Q1007